»·PEaware :: N159KR L52-L88

N159KR :: L52-L88

FLIGHT INFORMATION

Flight Status: Arrived
Operator: Privately registered:
United States
More flights under this callsign
Pilot: Jonathan R. (17818)
Aircraft: CESSNA 172 SKYHAWK
(C172)
More flights by this aircraft type
Origin: L52 Oceano Co
United States
Destination: L88 New Cuyama
United States
More flights between these airports :: More routes between these airports
Route:
File this flight plan on PilotEdge
Remarks: CAT-1 Rating
Altitude:
(Current/Filed)
7,500ft
Speed:
(Current/Filed)
105kts
Departed: 06-Jan-18 11:06 AM
Arrived: 06-Jan-18 11:38 AM
Distance/Time
Traveled:
47nm/0:32
Distance/Time
To Go:
Arrived

Flight Plot

Page will automatically refresh every two minutes.


Map Options




Map Legend


Flown Route
Filed Route
Departure Airport
Arrival Airport
Navaid (VOR, NDB)
Fix

Horizontal Profiles

Position Reports

Time Latitude Longitude Heading Altitude Ground
Speed
06-Jan-18 11:02 35.102465 -120.622783 34 16ft 0kts
06-Jan-18 11:03 35.102465 -120.622783 34 16ft 0kts
06-Jan-18 11:04 35.102465 -120.622783 34 16ft 0kts
06-Jan-18 11:05 35.102465 -120.622783 34 16ft 0kts
06-Jan-18 11:06 35.102465 -120.622783 34 16ft 0kts
06-Jan-18 11:07 35.102465 -120.622783 34 16ft 0kts
06-Jan-18 11:08 35.102465 -120.622783 34 16ft 0kts
06-Jan-18 11:09 35.102436 -120.622825 163 16ft 5kts
06-Jan-18 11:10 35.102087 -120.622322 119 17ft 0kts
06-Jan-18 11:11 35.100521 -120.621303 122 17ft 18kts
06-Jan-18 11:12 35.101050 -120.621352 302 17ft 65kts
06-Jan-18 11:13 35.106365 -120.640286 192 1035ft 79kts
06-Jan-18 11:14 35.090980 -120.631166 87 2069ft 88kts
06-Jan-18 11:15 35.091178 -120.627279 82 2205ft 88kts
06-Jan-18 11:16 35.091566 -120.624080 79 2293ft 91kts
06-Jan-18 11:17 35.094563 -120.593716 90 3267ft 91kts
06-Jan-18 11:18 35.091616 -120.562693 98 4167ft 93kts
06-Jan-18 11:19 35.087274 -120.532327 106 5062ft 91kts
06-Jan-18 11:20 35.085309 -120.502359 90 5887ft 91kts
06-Jan-18 11:21 35.077512 -120.473197 102 6637ft 95kts
06-Jan-18 11:22 35.071736 -120.441732 104 7365ft 96kts
06-Jan-18 11:23 35.064250 -120.405472 102 7568ft 119kts
06-Jan-18 11:24 35.056859 -120.367549 102 7427ft 112kts
06-Jan-18 11:25 35.048443 -120.331239 106 7436ft 111kts
06-Jan-18 11:26 35.039757 -120.294817 106 7441ft 112kts
06-Jan-18 11:27 35.030849 -120.258350 110 7448ft 112kts
06-Jan-18 11:28 35.021789 -120.222071 102 7445ft 113kts
06-Jan-18 11:29 35.018280 -120.183396 95 7365ft 115kts
06-Jan-18 11:30 35.015571 -120.156530 94 7318ft 116kts
06-Jan-18 11:31 35.013334 -120.116990 99 7288ft 119kts
06-Jan-18 11:32 35.008932 -120.077735 99 7321ft 116kts
06-Jan-18 11:33 35.002555 -120.039127 100 7332ft 114kts
06-Jan-18 11:34 34.995962 -120.001052 104 7229ft 113kts
06-Jan-18 11:35 34.988167 -119.964287 91 7237ft 112kts
06-Jan-18 11:36 34.985625 -119.926556 106 7270ft 116kts
06-Jan-18 11:37 34.977948 -119.888456 102 7046ft 115kts
06-Jan-18 11:38 34.969590 -119.850175 109 6720ft 115kts
06-Jan-18 11:39 34.962945 -119.812775 94 5685ft 115kts
06-Jan-18 11:40 34.956855 -119.774993 98 4130ft 111kts
06-Jan-18 11:41 34.956573 -119.740477 83 3132ft 92kts
06-Jan-18 11:42 34.951888 -119.713867 112 2605ft 75kts
06-Jan-18 11:43 34.943079 -119.693149 115 2230ft 63kts
06-Jan-18 11:44 34.942121 -119.690681 338 2157ft 11kts
06-Jan-18 11:45 34.943659 -119.691015 178 2154ft 0kts
06-Jan-18 11:46 34.943659 -119.691015 178 2154ft 0kts
06-Jan-18 11:47 34.943659 -119.691015 178 2154ft 0kts
06-Jan-18 11:48 34.943659 -119.691015 178 2154ft 0kts
06-Jan-18 11:49 34.943659 -119.691015 178 2154ft 0kts
06-Jan-18 11:50 34.943659 -119.691015 178 2154ft 0kts
06-Jan-18 11:51 34.943659 -119.691015 178 2154ft 0kts
06-Jan-18 11:52 34.943659 -119.691015 178 2154ft 0kts
06-Jan-18 11:53 34.943659 -119.691015 178 2154ft 0kts
06-Jan-18 11:54 34.943659 -119.691015 178 2154ft 0kts
06-Jan-18 11:55 34.943659 -119.691015 178 2154ft 0kts
06-Jan-18 11:56 34.943659 -119.691015 178 2154ft 0kts
06-Jan-18 11:57 34.943659 -119.691015 178 2154ft 0kts
06-Jan-18 11:58 34.943659 -119.691015 178 2154ft 0kts

Navigation Log

Ident Type
Flight plan parsing failed, navigation log unavailable